Tucson, AZ (85750)

2:20 PM MST on May 30, 2015 (GMT -0700)
Sunrise Mountain Ridge | | Change Station
CLOSE
Current Station
Personal Weather Station
Location: Tucson, AZ
Elevation: 2891 ft
Nearby Weather Stations

Elev 2891 ft 32.29 °N, 110.84 °W | Updated 59 seconds ago

Clear
Clear
98.2 °F
Feels Like 94 °F
N
2.0
Wind Variable Wind from West
Gusts 10.0 mph

Today
High -- | Low -- °F
--% Chance of Precip.
Yesterday
High -- | Low -- °F
Precip. -- in
5:18 AM 7:24 PM
Waxing Gibbous, 92% visible
Pressure 29.82 in
Visibility 10.0 miles
Clouds Clear
Heat Index 94 °F
Dew Point 43 °F
Humidity 15%
Rainfall -999.00 in
Snow Depth Not available.
UV 11 out of 12
Pollen 4.50 out of 12
Air Quality Not available.
Flu Activity Local Activity
METAR KDMA 302058Z AUTO 11010KT 10SM CLR 36/M05 A2995 RMK AO2 SLP096 T03601046 57022 $

More Conditions Fewer Conditions

Pressure 29.82 in
Visibility 10.0 miles
Clouds Clear
Heat Index 94 °F
Dew Point 43 °F
Humidity 15%
Rainfall -999.00 in
Snow Depth Not available.
UV 11 out of 12
Pollen 4.50 out of 12
Air Quality Not available.
Flu Activity Local Activity
METAR KDMA 302058Z AUTO 11010KT 10SM CLR 36/M05 A2995 RMK AO2 SLP096 T03601046 57022 $

More Conditions Fewer Conditions

10-Day Weather Forecast

Almanac

Astronomy

May. 30, 2015 Rise Set
Actual Time
Civil Twilight
Nautical Twilight
Astronomical Twilight
Moon
Length of Visible Light
Length of Day
Tomorrow will be .
, % of the Moon is Illuminated

Today's Extremes

State Highs State Lows

Community

WunderPhotos

Upload Photos

1,825,608 photos uploaded!

WunderBlogs® & News

Nearby

Air Quality

  Air Quality AQ Index Pollutant
Not available.

Snow Depth

Station Depth Elevation

Earthquake Activity

City Distance Mag. Time & Date
Minimum magnitude displayed is 2.5.

Coastal Water Temperatures

Place Temperature

Stations

Nearby Weather Stations

Station Location Temp. Windchill Dew Point Humidity Wind Precip. Elev Updated Type